sensor_id;sensor_type;location;lat;lon;timestamp;P1;durP1;ratioP1;P2;durP2;ratioP2
31730;SDS011;18310;55.586;12.286;2024-01-10T00:00:05;28.23;;;12.30;;
31730;SDS011;18310;55.586;12.286;2024-01-10T00:03:10;29.25;;;13.05;;
31730;SDS011;18310;55.586;12.286;2024-01-10T00:06:14;32.67;;;13.48;;
31730;SDS011;18310;55.586;12.286;2024-01-10T00:09:19;32.08;;;13.60;;
31730;SDS011;18310;55.586;12.286;2024-01-10T00:12:22;33.75;;;11.88;;
31730;SDS011;18310;55.586;12.286;2024-01-10T00:15:26;30.00;;;12.97;;
31730;SDS011;18310;55.586;12.286;2024-01-10T00:18:29;29.47;;;13.63;;
31730;SDS011;18310;55.586;12.286;2024-01-10T00:21:32;29.90;;;13.30;;
31730;SDS011;18310;55.586;12.286;2024-01-10T00:24:38;29.50;;;12.65;;
31730;SDS011;18310;55.586;12.286;2024-01-10T00:27:41;25.83;;;12.50;;
31730;SDS011;18310;55.586;12.286;2024-01-10T00:30:44;29.35;;;11.38;;
31730;SDS011;18310;55.586;12.286;2024-01-10T00:33:51;31.40;;;13.13;;
31730;SDS011;18310;55.586;12.286;2024-01-10T00:36:55;22.63;;;10.23;;
31730;SDS011;18310;55.586;12.286;2024-01-10T00:40:00;24.45;;;11.93;;
31730;SDS011;18310;55.586;12.286;2024-01-10T00:43:03;24.15;;;12.25;;
31730;SDS011;18310;55.586;12.286;2024-01-10T00:46:06;25.20;;;12.20;;
31730;SDS011;18310;55.586;12.286;2024-01-10T00:49:10;26.52;;;12.98;;
31730;SDS011;18310;55.586;12.286;2024-01-10T00:52:14;26.88;;;12.15;;
31730;SDS011;18310;55.586;12.286;2024-01-10T00:55:19;26.02;;;12.85;;
31730;SDS011;18310;55.586;12.286;2024-01-10T00:58:23;25.67;;;12.80;;
31730;SDS011;18310;55.586;12.286;2024-01-10T01:01:26;29.55;;;12.52;;
31730;SDS011;18310;55.586;12.286;2024-01-10T01:04:36;26.27;;;12.63;;
31730;SDS011;18310;55.586;12.286;2024-01-10T01:07:40;26.00;;;11.65;;
31730;SDS011;18310;55.586;12.286;2024-01-10T01:10:46;24.77;;;11.65;;
31730;SDS011;18310;55.586;12.286;2024-01-10T01:13:49;28.63;;;13.13;;
31730;SDS011;18310;55.586;12.286;2024-01-10T01:16:53;25.60;;;12.52;;
31730;SDS011;18310;55.586;12.286;2024-01-10T01:19:57;30.20;;;12.65;;
31730;SDS011;18310;55.586;12.286;2024-01-10T01:23:01;29.30;;;11.73;;
31730;SDS011;18310;55.586;12.286;2024-01-10T01:26:06;26.25;;;11.13;;
31730;SDS011;18310;55.586;12.286;2024-01-10T01:29:27;29.88;;;12.27;;
31730;SDS011;18310;55.586;12.286;2024-01-10T01:32:30;29.95;;;12.35;;
31730;SDS011;18310;55.586;12.286;2024-01-10T01:35:34;26.60;;;11.17;;
31730;SDS011;18310;55.586;12.286;2024-01-10T01:38:37;20.90;;;10.87;;
31730;SDS011;18310;55.586;12.286;2024-01-10T01:41:40;24.80;;;11.13;;
31730;SDS011;18310;55.586;12.286;2024-01-10T01:44:45;27.73;;;11.52;;
31730;SDS011;18310;55.586;12.286;2024-01-10T01:47:48;24.27;;;11.55;;
31730;SDS011;18310;55.586;12.286;2024-01-10T01:50:54;25.70;;;11.27;;
31730;SDS011;18310;55.586;12.286;2024-01-10T01:53:59;21.80;;;11.00;;
31730;SDS011;18310;55.586;12.286;2024-01-10T01:57:03;26.73;;;11.90;;
31730;SDS011;18310;55.586;12.286;2024-01-10T02:00:09;16.27;;;8.52;;
31730;SDS011;18310;55.586;12.286;2024-01-10T02:03:13;19.98;;;9.00;;
31730;SDS011;18310;55.586;12.286;2024-01-10T02:06:17;17.15;;;8.38;;
31730;SDS011;18310;55.586;12.286;2024-01-10T02:09:20;16.65;;;7.70;;
31730;SDS011;18310;55.586;12.286;2024-01-10T02:12:24;16.50;;;6.70;;
31730;SDS011;18310;55.586;12.286;2024-01-10T02:15:29;14.30;;;7.20;;
31730;SDS011;18310;55.586;12.286;2024-01-10T02:18:34;14.48;;;7.07;;
31730;SDS011;18310;55.586;12.286;2024-01-10T02:21:37;19.08;;;7.50;;
31730;SDS011;18310;55.586;12.286;2024-01-10T02:24:42;17.05;;;7.93;;
31730;SDS011;18310;55.586;12.286;2024-01-10T02:27:47;13.60;;;6.23;;
31730;SDS011;18310;55.586;12.286;2024-01-10T02:30:50;10.43;;;6.03;;
31730;SDS011;18310;55.586;12.286;2024-01-10T02:33:55;14.50;;;7.28;;
31730;SDS011;18310;55.586;12.286;2024-01-10T02:36:58;12.18;;;5.90;;
31730;SDS011;18310;55.586;12.286;2024-01-10T02:40:02;9.95;;;5.10;;
31730;SDS011;18310;55.586;12.286;2024-01-10T02:46:11;9.52;;;5.07;;
31730;SDS011;18310;55.586;12.286;2024-01-10T02:49:15;10.97;;;4.80;;
31730;SDS011;18310;55.586;12.286;2024-01-10T02:52:20;9.05;;;4.70;;
31730;SDS011;18310;55.586;12.286;2024-01-10T02:55:23;10.90;;;4.72;;
31730;SDS011;18310;55.586;12.286;2024-01-10T02:58:28;10.33;;;4.80;;
31730;SDS011;18310;55.586;12.286;2024-01-10T03:01:31;9.77;;;4.82;;
31730;SDS011;18310;55.586;12.286;2024-01-10T03:04:35;9.75;;;5.15;;
31730;SDS011;18310;55.586;12.286;2024-01-10T03:07:38;8.00;;;4.60;;
31730;SDS011;18310;55.586;12.286;2024-01-10T03:10:42;11.50;;;5.47;;
31730;SDS011;18310;55.586;12.286;2024-01-10T03:13:47;11.02;;;5.85;;
31730;SDS011;18310;55.586;12.286;2024-01-10T03:16:51;12.20;;;5.72;;
31730;SDS011;18310;55.586;12.286;2024-01-10T03:22:58;11.85;;;5.75;;
31730;SDS011;18310;55.586;12.286;2024-01-10T03:26:01;10.73;;;6.10;;
31730;SDS011;18310;55.586;12.286;2024-01-10T03:29:07;13.57;;;5.45;;
31730;SDS011;18310;55.586;12.286;2024-01-10T03:32:10;8.85;;;5.13;;
31730;SDS011;18310;55.586;12.286;2024-01-10T03:35:14;10.82;;;5.85;;
31730;SDS011;18310;55.586;12.286;2024-01-10T03:38:17;9.57;;;5.83;;
31730;SDS011;18310;55.586;12.286;2024-01-10T03:41:20;11.00;;;5.50;;
31730;SDS011;18310;55.586;12.286;2024-01-10T03:44:25;8.85;;;4.95;;
31730;SDS011;18310;55.586;12.286;2024-01-10T03:47:29;8.70;;;4.30;;
31730;SDS011;18310;55.586;12.286;2024-01-10T03:50:32;7.23;;;3.40;;
31730;SDS011;18310;55.586;12.286;2024-01-10T03:53:36;6.15;;;3.30;;
31730;SDS011;18310;55.586;12.286;2024-01-10T03:56:39;5.05;;;3.20;;
31730;SDS011;18310;55.586;12.286;2024-01-10T03:59:44;5.97;;;3.20;;
31730;SDS011;18310;55.586;12.286;2024-01-10T04:02:48;5.47;;;2.95;;
31730;SDS011;18310;55.586;12.286;2024-01-10T04:05:54;6.35;;;3.30;;
31730;SDS011;18310;55.586;12.286;2024-01-10T04:08:57;4.53;;;2.67;;
31730;SDS011;18310;55.586;12.286;2024-01-10T04:12:01;4.90;;;2.75;;
31730;SDS011;18310;55.586;12.286;2024-01-10T04:15:06;5.43;;;2.57;;
31730;SDS011;18310;55.586;12.286;2024-01-10T04:18:10;5.63;;;2.78;;
31730;SDS011;18310;55.586;12.286;2024-01-10T04:21:18;5.07;;;2.63;;
31730;SDS011;18310;55.586;12.286;2024-01-10T04:24:22;4.90;;;2.92;;
31730;SDS011;18310;55.586;12.286;2024-01-10T04:27:25;5.03;;;3.28;;
31730;SDS011;18310;55.586;12.286;2024-01-10T04:30:30;5.22;;;3.40;;
31730;SDS011;18310;55.586;12.286;2024-01-10T04:33:33;6.88;;;3.47;;
31730;SDS011;18310;55.586;12.286;2024-01-10T04:36:38;5.93;;;3.70;;
31730;SDS011;18310;55.586;12.286;2024-01-10T04:39:41;7.47;;;3.77;;
31730;SDS011;18310;55.586;12.286;2024-01-10T04:42:45;6.25;;;3.33;;
31730;SDS011;18310;55.586;12.286;2024-01-10T04:45:50;5.63;;;3.70;;
31730;SDS011;18310;55.586;12.286;2024-01-10T04:48:54;6.15;;;3.45;;
31730;SDS011;18310;55.586;12.286;2024-01-10T04:51:57;5.47;;;3.13;;
31730;SDS011;18310;55.586;12.286;2024-01-10T04:55:01;6.03;;;3.25;;
31730;SDS011;18310;55.586;12.286;2024-01-10T04:58:07;5.50;;;2.80;;
31730;SDS011;18310;55.586;12.286;2024-01-10T05:01:12;7.07;;;3.43;;
31730;SDS011;18310;55.586;12.286;2024-01-10T05:04:16;5.15;;;3.30;;
31730;SDS011;18310;55.586;12.286;2024-01-10T05:07:19;7.10;;;3.67;;
31730;SDS011;18310;55.586;12.286;2024-01-10T05:10:23;7.50;;;3.20;;
31730;SDS011;18310;55.586;12.286;2024-01-10T05:13:26;8.50;;;3.10;;
31730;SDS011;18310;55.586;12.286;2024-01-10T05:16:31;6.73;;;3.13;;
31730;SDS011;18310;55.586;12.286;2024-01-10T05:19:38;9.55;;;4.28;;
31730;SDS011;18310;55.586;12.286;2024-01-10T05:22:42;7.43;;;4.32;;
31730;SDS011;18310;55.586;12.286;2024-01-10T05:25:46;11.32;;;4.10;;
31730;SDS011;18310;55.586;12.286;2024-01-10T05:28:50;6.22;;;3.75;;
31730;SDS011;18310;55.586;12.286;2024-01-10T05:31:55;5.47;;;3.20;;
31730;SDS011;18310;55.586;12.286;2024-01-10T05:34:58;6.15;;;3.05;;
31730;SDS011;18310;55.586;12.286;2024-01-10T05:38:02;5.50;;;2.85;;
31730;SDS011;18310;55.586;12.286;2024-01-10T05:41:05;5.38;;;2.95;;
31730;SDS011;18310;55.586;12.286;2024-01-10T05:44:09;4.27;;;2.10;;
31730;SDS011;18310;55.586;12.286;2024-01-10T05:47:14;4.60;;;2.47;;
31730;SDS011;18310;55.586;12.286;2024-01-10T05:50:17;7.18;;;2.60;;
31730;SDS011;18310;55.586;12.286;2024-01-10T05:53:24;5.25;;;2.00;;
31730;SDS011;18310;55.586;12.286;2024-01-10T05:56:28;4.18;;;2.10;;
31730;SDS011;18310;55.586;12.286;2024-01-10T05:59:38;5.63;;;2.42;;
31730;SDS011;18310;55.586;12.286;2024-01-10T06:02:43;4.78;;;2.40;;
31730;SDS011;18310;55.586;12.286;2024-01-10T06:05:46;6.72;;;3.20;;
31730;SDS011;18310;55.586;12.286;2024-01-10T06:08:51;6.38;;;3.20;;
31730;SDS011;18310;55.586;12.286;2024-01-10T06:11:54;4.93;;;2.67;;
31730;SDS011;18310;55.586;12.286;2024-01-10T06:14:59;6.03;;;2.65;;
31730;SDS011;18310;55.586;12.286;2024-01-10T06:18:04;5.38;;;3.22;;
31730;SDS011;18310;55.586;12.286;2024-01-10T06:21:08;9.35;;;2.70;;
31730;SDS011;18310;55.586;12.286;2024-01-10T06:24:14;6.03;;;2.60;;
31730;SDS011;18310;55.586;12.286;2024-01-10T06:27:17;4.38;;;2.17;;
31730;SDS011;18310;55.586;12.286;2024-01-10T06:30:21;4.60;;;2.40;;
31730;SDS011;18310;55.586;12.286;2024-01-10T06:33:26;5.72;;;2.83;;
31730;SDS011;18310;55.586;12.286;2024-01-10T06:36:30;6.15;;;2.45;;
31730;SDS011;18310;55.586;12.286;2024-01-10T06:39:33;5.13;;;3.33;;
31730;SDS011;18310;55.586;12.286;2024-01-10T06:42:37;5.45;;;3.00;;
31730;SDS011;18310;55.586;12.286;2024-01-10T06:45:41;5.75;;;3.00;;
31730;SDS011;18310;55.586;12.286;2024-01-10T06:48:46;5.00;;;2.20;;
31730;SDS011;18310;55.586;12.286;2024-01-10T06:51:50;5.90;;;2.60;;
31730;SDS011;18310;55.586;12.286;2024-01-10T06:54:53;5.63;;;2.85;;
31730;SDS011;18310;55.586;12.286;2024-01-10T06:57:57;6.63;;;2.50;;
31730;SDS011;18310;55.586;12.286;2024-01-10T07:01:01;5.47;;;2.42;;
31730;SDS011;18310;55.586;12.286;2024-01-10T07:04:37;7.82;;;2.60;;
31730;SDS011;18310;55.586;12.286;2024-01-10T07:07:41;6.55;;;2.45;;
31730;SDS011;18310;55.586;12.286;2024-01-10T07:10:45;5.68;;;2.50;;
31730;SDS011;18310;55.586;12.286;2024-01-10T07:13:48;5.13;;;3.20;;
31730;SDS011;18310;55.586;12.286;2024-01-10T07:16:51;4.17;;;2.63;;
31730;SDS011;18310;55.586;12.286;2024-01-10T07:20:00;7.82;;;2.58;;
31730;SDS011;18310;55.586;12.286;2024-01-10T07:23:03;8.25;;;3.20;;
31730;SDS011;18310;55.586;12.286;2024-01-10T07:26:07;5.78;;;2.35;;
31730;SDS011;18310;55.586;12.286;2024-01-10T07:32:14;4.30;;;2.20;;
31730;SDS011;18310;55.586;12.286;2024-01-10T07:35:19;5.15;;;2.42;;
31730;SDS011;18310;55.586;12.286;2024-01-10T07:38:22;5.65;;;2.50;;
31730;SDS011;18310;55.586;12.286;2024-01-10T07:41:26;8.57;;;2.90;;
31730;SDS011;18310;55.586;12.286;2024-01-10T07:44:35;7.10;;;2.83;;
31730;SDS011;18310;55.586;12.286;2024-01-10T07:47:39;5.50;;;2.80;;
31730;SDS011;18310;55.586;12.286;2024-01-10T07:50:44;5.45;;;3.13;;
31730;SDS011;18310;55.586;12.286;2024-01-10T07:53:47;5.07;;;3.05;;
31730;SDS011;18310;55.586;12.286;2024-01-10T07:56:51;7.82;;;3.22;;
31730;SDS011;18310;55.586;12.286;2024-01-10T07:59:55;5.03;;;2.50;;
31730;SDS011;18310;55.586;12.286;2024-01-10T08:02:58;4.28;;;2.08;;
31730;SDS011;18310;55.586;12.286;2024-01-10T08:06:05;6.45;;;2.55;;
31730;SDS011;18310;55.586;12.286;2024-01-10T08:09:21;4.22;;;2.05;;
31730;SDS011;18310;55.586;12.286;2024-01-10T08:12:26;4.88;;;2.25;;
31730;SDS011;18310;55.586;12.286;2024-01-10T08:15:29;4.60;;;2.65;;
31730;SDS011;18310;55.586;12.286;2024-01-10T08:18:36;6.20;;;2.70;;
31730;SDS011;18310;55.586;12.286;2024-01-10T08:21:40;6.97;;;2.90;;
31730;SDS011;18310;55.586;12.286;2024-01-10T08:25:05;8.57;;;3.22;;
31730;SDS011;18310;55.586;12.286;2024-01-10T08:28:09;5.53;;;2.65;;
31730;SDS011;18310;55.586;12.286;2024-01-10T08:31:16;6.25;;;2.70;;
31730;SDS011;18310;55.586;12.286;2024-01-10T08:34:19;5.63;;;2.58;;
31730;SDS011;18310;55.586;12.286;2024-01-10T08:37:23;3.67;;;2.30;;
31730;SDS011;18310;55.586;12.286;2024-01-10T08:40:28;5.75;;;2.50;;
31730;SDS011;18310;55.586;12.286;2024-01-10T08:43:34;10.93;;;2.90;;
31730;SDS011;18310;55.586;12.286;2024-01-10T08:46:38;5.23;;;2.43;;
31730;SDS011;18310;55.586;12.286;2024-01-10T08:49:41;4.53;;;2.45;;
31730;SDS011;18310;55.586;12.286;2024-01-10T08:52:45;4.40;;;1.85;;
31730;SDS011;18310;55.586;12.286;2024-01-10T08:55:49;4.93;;;2.10;;
31730;SDS011;18310;55.586;12.286;2024-01-10T08:58:53;4.20;;;1.98;;
31730;SDS011;18310;55.586;12.286;2024-01-10T09:01:56;9.27;;;2.53;;
31730;SDS011;18310;55.586;12.286;2024-01-10T09:04:59;4.80;;;2.23;;
31730;SDS011;18310;55.586;12.286;2024-01-10T09:08:28;4.97;;;2.20;;
31730;SDS011;18310;55.586;12.286;2024-01-10T09:11:32;4.93;;;2.30;;
31730;SDS011;18310;55.586;12.286;2024-01-10T09:14:41;4.35;;;2.20;;
31730;SDS011;18310;55.586;12.286;2024-01-10T09:17:45;3.90;;;2.10;;
31730;SDS011;18310;55.586;12.286;2024-01-10T09:20:49;6.07;;;3.22;;
31730;SDS011;18310;55.586;12.286;2024-01-10T09:23:54;8.23;;;3.50;;
31730;SDS011;18310;55.586;12.286;2024-01-10T09:26:58;5.47;;;2.78;;
31730;SDS011;18310;55.586;12.286;2024-01-10T09:33:08;9.55;;;3.25;;
31730;SDS011;18310;55.586;12.286;2024-01-10T09:36:11;8.18;;;3.50;;
31730;SDS011;18310;55.586;12.286;2024-01-10T09:39:17;5.85;;;3.20;;
31730;SDS011;18310;55.586;12.286;2024-01-10T09:42:21;6.13;;;3.30;;
31730;SDS011;18310;55.586;12.286;2024-01-10T09:45:27;6.03;;;3.35;;
31730;SDS011;18310;55.586;12.286;2024-01-10T09:48:32;7.90;;;3.00;;
31730;SDS011;18310;55.586;12.286;2024-01-10T09:54:43;14.23;;;4.75;;
31730;SDS011;18310;55.586;12.286;2024-01-10T09:57:48;8.45;;;3.50;;
31730;SDS011;18310;55.586;12.286;2024-01-10T10:00:53;9.10;;;4.00;;
31730;SDS011;18310;55.586;12.286;2024-01-10T10:03:56;6.90;;;3.20;;
31730;SDS011;18310;55.586;12.286;2024-01-10T10:07:01;6.25;;;3.38;;
31730;SDS011;18310;55.586;12.286;2024-01-10T10:10:07;9.43;;;3.83;;
31730;SDS011;18310;55.586;12.286;2024-01-10T10:13:23;8.00;;;3.92;;
31730;SDS011;18310;55.586;12.286;2024-01-10T10:16:27;7.90;;;3.88;;
31730;SDS011;18310;55.586;12.286;2024-01-10T10:19:37;13.52;;;4.75;;
31730;SDS011;18310;55.586;12.286;2024-01-10T10:22:57;12.57;;;4.60;;
31730;SDS011;18310;55.586;12.286;2024-01-10T10:26:11;9.68;;;4.07;;
31730;SDS011;18310;55.586;12.286;2024-01-10T10:29:20;10.20;;;4.00;;
31730;SDS011;18310;55.586;12.286;2024-01-10T10:32:24;8.77;;;4.10;;
31730;SDS011;18310;55.586;12.286;2024-01-10T10:35:28;7.72;;;3.85;;
31730;SDS011;18310;55.586;12.286;2024-01-10T10:38:41;9.57;;;4.13;;
31730;SDS011;18310;55.586;12.286;2024-01-10T10:41:46;8.73;;;4.55;;
31730;SDS011;18310;55.586;12.286;2024-01-10T10:44:52;9.75;;;4.18;;
31730;SDS011;18310;55.586;12.286;2024-01-10T10:48:01;10.50;;;4.20;;
31730;SDS011;18310;55.586;12.286;2024-01-10T10:51:05;11.57;;;4.35;;
31730;SDS011;18310;55.586;12.286;2024-01-10T10:54:11;17.38;;;5.40;;
31730;SDS011;18310;55.586;12.286;2024-01-10T10:57:18;8.20;;;4.35;;
31730;SDS011;18310;55.586;12.286;2024-01-10T11:00:22;9.30;;;4.40;;
31730;SDS011;18310;55.586;12.286;2024-01-10T11:03:29;9.98;;;5.50;;
31730;SDS011;18310;55.586;12.286;2024-01-10T11:06:34;12.95;;;4.65;;
31730;SDS011;18310;55.586;12.286;2024-01-10T11:12:48;12.15;;;5.00;;
31730;SDS011;18310;55.586;12.286;2024-01-10T11:16:11;20.60;;;5.55;;
31730;SDS011;18310;55.586;12.286;2024-01-10T11:19:53;12.32;;;5.07;;
31730;SDS011;18310;55.586;12.286;2024-01-10T11:23:17;9.00;;;4.63;;
31730;SDS011;18310;55.586;12.286;2024-01-10T11:26:36;10.52;;;4.97;;
31730;SDS011;18310;55.586;12.286;2024-01-10T11:32:50;14.50;;;5.95;;
31730;SDS011;18310;55.586;12.286;2024-01-10T11:36:06;9.65;;;4.78;;
31730;SDS011;18310;55.586;12.286;2024-01-10T11:47:28;15.02;;;4.30;;
31730;SDS011;18310;55.586;12.286;2024-01-10T11:50:32;15.32;;;4.90;;
31730;SDS011;18310;55.586;12.286;2024-01-10T11:53:39;20.77;;;5.07;;
31730;SDS011;18310;55.586;12.286;2024-01-10T11:56:49;15.63;;;4.70;;
31730;SDS011;18310;55.586;12.286;2024-01-10T11:59:54;10.40;;;4.50;;
31730;SDS011;18310;55.586;12.286;2024-01-10T12:03:01;15.70;;;4.95;;
31730;SDS011;18310;55.586;12.286;2024-01-10T12:06:05;21.83;;;4.95;;
31730;SDS011;18310;55.586;12.286;2024-01-10T12:09:10;9.00;;;5.03;;
31730;SDS011;18310;55.586;12.286;2024-01-10T12:12:17;11.65;;;5.45;;
31730;SDS011;18310;55.586;12.286;2024-01-10T12:15:21;15.00;;;5.18;;
31730;SDS011;18310;55.586;12.286;2024-01-10T12:18:25;14.85;;;5.07;;
31730;SDS011;18310;55.586;12.286;2024-01-10T12:21:28;14.13;;;5.82;;
31730;SDS011;18310;55.586;12.286;2024-01-10T12:24:42;14.23;;;5.25;;
31730;SDS011;18310;55.586;12.286;2024-01-10T12:27:49;9.80;;;4.95;;
31730;SDS011;18310;55.586;12.286;2024-01-10T12:30:53;11.20;;;4.53;;
31730;SDS011;18310;55.586;12.286;2024-01-10T12:33:56;7.78;;;4.50;;
31730;SDS011;18310;55.586;12.286;2024-01-10T12:37:00;16.45;;;5.05;;
31730;SDS011;18310;55.586;12.286;2024-01-10T12:40:06;15.88;;;5.28;;
31730;SDS011;18310;55.586;12.286;2024-01-10T12:43:14;15.32;;;5.38;;
31730;SDS011;18310;55.586;12.286;2024-01-10T12:46:17;8.55;;;4.55;;
31730;SDS011;18310;55.586;12.286;2024-01-10T12:49:22;13.38;;;4.88;;
31730;SDS011;18310;55.586;12.286;2024-01-10T12:55:29;12.67;;;5.20;;
31730;SDS011;18310;55.586;12.286;2024-01-10T12:58:34;18.55;;;5.50;;
31730;SDS011;18310;55.586;12.286;2024-01-10T13:02:04;21.58;;;4.38;;
31730;SDS011;18310;55.586;12.286;2024-01-10T13:05:08;9.48;;;3.92;;
31730;SDS011;18310;55.586;12.286;2024-01-10T13:08:12;13.45;;;4.22;;
31730;SDS011;18310;55.586;12.286;2024-01-10T13:11:15;15.43;;;4.18;;
31730;SDS011;18310;55.586;12.286;2024-01-10T13:14:19;11.25;;;3.80;;
31730;SDS011;18310;55.586;12.286;2024-01-10T13:17:24;7.32;;;3.85;;
31730;SDS011;18310;55.586;12.286;2024-01-10T13:20:28;8.70;;;3.92;;
31730;SDS011;18310;55.586;12.286;2024-01-10T13:23:32;12.80;;;3.90;;
31730;SDS011;18310;55.586;12.286;2024-01-10T13:26:36;8.07;;;3.42;;
31730;SDS011;18310;55.586;12.286;2024-01-10T13:29:40;6.82;;;4.07;;
31730;SDS011;18310;55.586;12.286;2024-01-10T13:32:45;12.35;;;3.58;;
31730;SDS011;18310;55.586;12.286;2024-01-10T13:35:49;9.88;;;4.05;;
31730;SDS011;18310;55.586;12.286;2024-01-10T13:38:52;20.60;;;4.70;;
31730;SDS011;18310;55.586;12.286;2024-01-10T13:41:55;8.67;;;3.57;;
31730;SDS011;18310;55.586;12.286;2024-01-10T13:44:59;8.77;;;4.28;;
31730;SDS011;18310;55.586;12.286;2024-01-10T13:48:04;8.25;;;3.92;;
31730;SDS011;18310;55.586;12.286;2024-01-10T13:51:09;11.23;;;4.30;;
31730;SDS011;18310;55.586;12.286;2024-01-10T13:54:13;13.23;;;4.32;;
31730;SDS011;18310;55.586;12.286;2024-01-10T13:57:16;13.07;;;4.60;;
31730;SDS011;18310;55.586;12.286;2024-01-10T14:00:20;8.90;;;4.47;;
31730;SDS011;18310;55.586;12.286;2024-01-10T14:03:25;11.00;;;4.35;;
31730;SDS011;18310;55.586;12.286;2024-01-10T14:06:33;9.38;;;3.75;;
31730;SDS011;18310;55.586;12.286;2024-01-10T14:09:36;8.82;;;3.83;;
31730;SDS011;18310;55.586;12.286;2024-01-10T14:12:40;12.18;;;4.18;;
31730;SDS011;18310;55.586;12.286;2024-01-10T14:15:43;6.72;;;3.55;;
31730;SDS011;18310;55.586;12.286;2024-01-10T14:19:08;6.00;;;3.33;;
31730;SDS011;18310;55.586;12.286;2024-01-10T14:22:11;8.88;;;3.70;;
31730;SDS011;18310;55.586;12.286;2024-01-10T14:25:29;5.05;;;3.22;;
31730;SDS011;18310;55.586;12.286;2024-01-10T14:28:33;6.40;;;3.17;;
31730;SDS011;18310;55.586;12.286;2024-01-10T14:31:37;5.32;;;3.10;;
31730;SDS011;18310;55.586;12.286;2024-01-10T14:35:03;7.32;;;4.22;;
31730;SDS011;18310;55.586;12.286;2024-01-10T14:38:08;11.35;;;4.45;;
31730;SDS011;18310;55.586;12.286;2024-01-10T14:41:12;7.50;;;4.00;;
31730;SDS011;18310;55.586;12.286;2024-01-10T14:44:16;11.77;;;5.00;;
31730;SDS011;18310;55.586;12.286;2024-01-10T14:50:24;8.38;;;4.90;;
31730;SDS011;18310;55.586;12.286;2024-01-10T14:53:28;9.13;;;4.45;;
31730;SDS011;18310;55.586;12.286;2024-01-10T14:56:31;8.85;;;4.30;;
31730;SDS011;18310;55.586;12.286;2024-01-10T14:59:37;11.98;;;4.53;;
31730;SDS011;18310;55.586;12.286;2024-01-10T15:02:48;15.20;;;4.70;;
31730;SDS011;18310;55.586;12.286;2024-01-10T15:05:53;16.63;;;4.10;;
31730;SDS011;18310;55.586;12.286;2024-01-10T15:08:57;6.63;;;3.00;;
31730;SDS011;18310;55.586;12.286;2024-01-10T15:12:04;7.57;;;3.80;;
31730;SDS011;18310;55.586;12.286;2024-01-10T15:15:09;8.60;;;3.63;;
31730;SDS011;18310;55.586;12.286;2024-01-10T15:18:12;9.13;;;4.67;;
31730;SDS011;18310;55.586;12.286;2024-01-10T15:24:22;8.63;;;4.72;;
31730;SDS011;18310;55.586;12.286;2024-01-10T15:27:26;7.45;;;4.25;;
31730;SDS011;18310;55.586;12.286;2024-01-10T15:30:30;9.63;;;4.00;;
31730;SDS011;18310;55.586;12.286;2024-01-10T15:33:47;8.70;;;4.32;;
31730;SDS011;18310;55.586;12.286;2024-01-10T15:36:52;7.80;;;4.70;;
31730;SDS011;18310;55.586;12.286;2024-01-10T15:39:56;12.88;;;4.50;;
31730;SDS011;18310;55.586;12.286;2024-01-10T15:43:00;7.70;;;4.15;;
31730;SDS011;18310;55.586;12.286;2024-01-10T15:46:05;8.63;;;4.60;;
31730;SDS011;18310;55.586;12.286;2024-01-10T15:49:10;8.77;;;4.70;;
31730;SDS011;18310;55.586;12.286;2024-01-10T15:55:18;10.15;;;5.90;;
31730;SDS011;18310;55.586;12.286;2024-01-10T15:58:21;10.68;;;4.90;;
31730;SDS011;18310;55.586;12.286;2024-01-10T16:01:27;16.55;;;6.65;;
31730;SDS011;18310;55.586;12.286;2024-01-10T16:04:30;10.27;;;5.93;;
31730;SDS011;18310;55.586;12.286;2024-01-10T16:07:35;12.80;;;7.15;;
31730;SDS011;18310;55.586;12.286;2024-01-10T16:10:39;12.25;;;7.13;;
31730;SDS011;18310;55.586;12.286;2024-01-10T16:13:43;18.30;;;7.57;;
31730;SDS011;18310;55.586;12.286;2024-01-10T16:16:47;12.10;;;6.68;;
31730;SDS011;18310;55.586;12.286;2024-01-10T16:19:51;11.98;;;6.50;;
31730;SDS011;18310;55.586;12.286;2024-01-10T16:22:56;10.15;;;6.22;;
31730;SDS011;18310;55.586;12.286;2024-01-10T16:25:59;12.93;;;7.07;;
31730;SDS011;18310;55.586;12.286;2024-01-10T16:29:03;14.43;;;7.20;;
31730;SDS011;18310;55.586;12.286;2024-01-10T16:32:06;11.50;;;6.47;;
31730;SDS011;18310;55.586;12.286;2024-01-10T16:35:10;10.30;;;6.10;;
31730;SDS011;18310;55.586;12.286;2024-01-10T16:38:16;8.43;;;5.47;;
31730;SDS011;18310;55.586;12.286;2024-01-10T16:41:21;12.27;;;6.57;;
31730;SDS011;18310;55.586;12.286;2024-01-10T16:44:24;12.27;;;5.93;;
31730;SDS011;18310;55.586;12.286;2024-01-10T16:47:28;9.73;;;5.45;;
31730;SDS011;18310;55.586;12.286;2024-01-10T16:50:32;8.23;;;5.05;;
31730;SDS011;18310;55.586;12.286;2024-01-10T16:53:37;10.30;;;6.07;;
31730;SDS011;18310;55.586;12.286;2024-01-10T16:56:41;10.02;;;5.68;;
31730;SDS011;18310;55.586;12.286;2024-01-10T16:59:44;10.00;;;5.90;;
31730;SDS011;18310;55.586;12.286;2024-01-10T17:02:48;8.60;;;5.40;;
31730;SDS011;18310;55.586;12.286;2024-01-10T17:05:52;9.52;;;5.65;;
31730;SDS011;18310;55.586;12.286;2024-01-10T17:08:57;9.40;;;5.38;;
31730;SDS011;18310;55.586;12.286;2024-01-10T17:12:02;8.85;;;5.18;;
31730;SDS011;18310;55.586;12.286;2024-01-10T17:15:07;8.93;;;4.93;;
31730;SDS011;18310;55.586;12.286;2024-01-10T17:18:11;9.50;;;4.45;;
31730;SDS011;18310;55.586;12.286;2024-01-10T17:21:14;10.20;;;5.95;;
31730;SDS011;18310;55.586;12.286;2024-01-10T17:24:20;12.18;;;6.47;;
31730;SDS011;18310;55.586;12.286;2024-01-10T17:27:23;11.80;;;6.60;;
31730;SDS011;18310;55.586;12.286;2024-01-10T17:31:48;9.23;;;5.32;;
31730;SDS011;18310;55.586;12.286;2024-01-10T17:34:52;12.32;;;6.50;;
31730;SDS011;18310;55.586;12.286;2024-01-10T17:37:55;14.43;;;6.37;;
31730;SDS011;18310;55.586;12.286;2024-01-10T17:40:59;9.15;;;5.88;;
31730;SDS011;18310;55.586;12.286;2024-01-10T17:44:04;12.00;;;6.78;;
31730;SDS011;18310;55.586;12.286;2024-01-10T17:47:09;12.13;;;6.70;;
31730;SDS011;18310;55.586;12.286;2024-01-10T17:50:13;11.82;;;6.88;;
31730;SDS011;18310;55.586;12.286;2024-01-10T17:53:16;10.77;;;6.82;;
31730;SDS011;18310;55.586;12.286;2024-01-10T17:56:20;15.73;;;6.95;;
31730;SDS011;18310;55.586;12.286;2024-01-10T17:59:24;14.20;;;8.13;;
31730;SDS011;18310;55.586;12.286;2024-01-10T18:02:29;13.13;;;7.47;;
31730;SDS011;18310;55.586;12.286;2024-01-10T18:05:32;17.20;;;7.15;;
31730;SDS011;18310;55.586;12.286;2024-01-10T18:08:37;13.15;;;7.72;;
31730;SDS011;18310;55.586;12.286;2024-01-10T18:11:40;17.10;;;7.47;;
31730;SDS011;18310;55.586;12.286;2024-01-10T18:14:44;16.50;;;8.02;;
31730;SDS011;18310;55.586;12.286;2024-01-10T18:17:49;12.82;;;7.88;;
31730;SDS011;18310;55.586;12.286;2024-01-10T18:20:53;17.88;;;8.40;;
31730;SDS011;18310;55.586;12.286;2024-01-10T18:23:57;16.23;;;8.23;;
31730;SDS011;18310;55.586;12.286;2024-01-10T18:27:02;19.38;;;8.32;;
31730;SDS011;18310;55.586;12.286;2024-01-10T18:30:06;14.50;;;7.80;;
31730;SDS011;18310;55.586;12.286;2024-01-10T18:33:13;15.30;;;8.50;;
31730;SDS011;18310;55.586;12.286;2024-01-10T18:36:18;15.00;;;8.60;;
31730;SDS011;18310;55.586;12.286;2024-01-10T18:39:22;15.27;;;8.80;;
31730;SDS011;18310;55.586;12.286;2024-01-10T18:42:25;17.42;;;8.90;;
31730;SDS011;18310;55.586;12.286;2024-01-10T18:45:29;14.45;;;7.88;;
31730;SDS011;18310;55.586;12.286;2024-01-10T18:48:34;12.80;;;7.73;;
31730;SDS011;18310;55.586;12.286;2024-01-10T18:51:38;15.23;;;8.05;;